Time;durP1;ratioP1;P1;durP2;ratioP2;P2;SDS_P1;SDS_P2;PMS_P1;PMS_P2;Temp;Humidity;BMP_temperature;BMP_pressure;BME280_temperature;BME280_humidity;BME280_pressure;Samples;Min_cycle;Max_cycle;Signal;HPM_P1;HPM_P2
2022/04/02 00:01:07;;;;;;;;;;;;;;;3.96;59.39;97895.78;4442557;32;20304;-89
2022/04/02 00:03:32;;;;;;;;;;;;;;;3.84;59.39;97887.66;4455620;32;20020;-89
2022/04/02 00:05:58;;;;;;;;;;;;;;;3.90;59.39;97892.59;4455268;32;19999;-89
2022/04/02 00:08:24;;;;;;;;;;;;;;;3.95;59.39;97888.94;4455798;32;20008;-90
2022/04/02 00:10:50;;;;;;;;;;;;;;;3.83;59.38;97894.53;4455605;32;19992;-90
2022/04/02 00:13:15;;;;;;;;;;;;;;;3.92;59.40;97898.50;4454525;32;20354;-90
2022/04/02 00:15:41;;;;;;;;;;;;;;;3.91;59.40;97901.97;4455570;32;20000;-89
2022/04/02 00:18:06;;;;;;;;;;;;;;;3.99;59.40;97897.41;4455437;32;19992;-88
2022/04/02 00:20:32;;;;;;;;;;;;;;;3.86;59.40;97912.44;4455186;32;20436;-87
2022/04/02 00:25:41;;;;;;;;;;;;;;;4.07;59.40;97902.28;4457536;32;19996;-90
2022/04/02 00:28:06;;;;;;;;;;;;;;;3.97;59.39;97887.16;4442101;32;20049;-89
2022/04/02 00:30:31;;;;;;;;;;;;;;;3.94;59.40;97883.84;4442291;32;19997;-90
2022/04/02 00:32:58;;;;;;;;;;;;;;;3.83;59.40;97867.97;4441992;32;20314;-90
2022/04/02 00:35:23;;;;;;;;;;;;;;;4.00;59.40;97869.03;4442704;32;19971;-90
2022/04/02 00:37:48;;;;;;;;;;;;;;;4.06;59.41;97874.87;4442578;32;20000;-90
2022/04/02 00:40:14;;;;;;;;;;;;;;;3.94;59.40;97871.81;4442567;32;20023;-89
2022/04/02 00:42:39;;;;;;;;;;;;;;;4.00;59.40;97866.44;4455380;32;20004;-89
2022/04/02 00:45:04;;;;;;;;;;;;;;;3.97;59.39;97864.00;4468385;32;20007;-89
2022/04/02 00:47:30;;;;;;;;;;;;;;;3.77;59.39;97852.72;4442138;32;19985;-89
2022/04/02 00:49:57;;;;;;;;;;;;;;;3.82;59.39;97864.53;4441999;32;27384;-92
2022/04/02 00:52:23;;;;;;;;;;;;;;;3.71;59.38;97871.78;4442667;32;20011;-90
2022/04/02 00:54:49;;;;;;;;;;;;;;;3.70;59.38;97870.09;4455459;32;20333;-89
2022/04/02 00:57:14;;;;;;;;;;;;;;;3.50;59.37;97869.94;4442525;32;20045;-91
2022/04/02 00:59:40;;;;;;;;;;;;;;;3.48;59.38;97869.16;4442380;32;19983;-89
2022/04/02 01:02:05;;;;;;;;;;;;;;;3.33;59.37;97871.38;4442577;32;20261;-89
2022/04/02 01:04:30;;;;;;;;;;;;;;;3.34;59.36;97870.47;4442042;32;19981;-89
2022/04/02 01:06:56;;;;;;;;;;;;;;;3.46;59.37;97866.63;4442378;32;19994;-87
2022/04/02 01:09:22;;;;;;;;;;;;;;;3.48;59.37;97862.28;4442738;32;19999;-89
2022/04/02 01:11:48;;;;;;;;;;;;;;;3.31;59.36;97868.00;4441563;32;31390;-89
2022/04/02 01:14:13;;;;;;;;;;;;;;;3.16;59.34;97881.34;4469800;32;20028;-90
2022/04/02 01:16:39;;;;;;;;;;;;;;;3.22;59.35;97880.31;4442714;32;19996;-90
2022/04/02 01:19:04;;;;;;;;;;;;;;;3.20;59.35;97884.66;4455501;32;20010;-89
2022/04/02 01:21:30;;;;;;;;;;;;;;;3.05;59.34;97894.53;4443246;32;20067;-89
2022/04/02 01:23:55;;;;;;;;;;;;;;;3.21;59.36;97896.63;4441590;32;20000;-87
2022/04/02 01:26:20;;;;;;;;;;;;;;;3.21;59.35;97899.19;4469139;32;19976;-87
2022/04/02 01:28:53;;;;;;;;;;;;;;;3.29;59.35;97908.31;4441576;32;20003;-87
2022/04/02 01:31:18;;;;;;;;;;;;;;;3.30;59.36;97912.56;4437239;32;19981;-86
2022/04/02 01:33:43;;;;;;;;;;;;;;;3.26;59.36;97917.88;4441163;32;20031;-86
2022/04/02 01:36:09;;;;;;;;;;;;;;;3.27;59.36;97915.25;4467788;32;20003;-87
2022/04/02 01:38:34;;;;;;;;;;;;;;;3.42;59.37;97913.09;4453694;32;25501;-87
2022/04/02 01:40:59;;;;;;;;;;;;;;;3.41;59.37;97911.41;4454774;32;19985;-88
2022/04/02 01:43:24;;;;;;;;;;;;;;;3.41;59.37;97913.97;4453908;32;23449;-88
2022/04/02 01:45:56;;;;;;;;;;;;;;;3.39;59.37;97909.72;4454117;32;19997;-87
2022/04/02 01:48:22;;;;;;;;;;;;;;;3.26;59.36;97928.16;4455304;32;19989;-89
2022/04/02 01:50:47;;;;;;;;;;;;;;;3.28;59.36;97922.06;4455328;32;20025;-89
2022/04/02 01:53:12;;;;;;;;;;;;;;;3.31;59.36;97919.44;4442611;32;20059;-90
2022/04/02 01:55:38;;;;;;;;;;;;;;;3.31;59.35;97923.69;4455658;32;19996;-91
2022/04/02 01:58:03;;;;;;;;;;;;;;;3.22;59.36;97934.28;4455318;32;20016;-89
2022/04/02 02:00:28;;;;;;;;;;;;;;;3.32;59.36;97931.41;4441877;32;19992;-89
2022/04/02 02:02:54;;;;;;;;;;;;;;;3.44;59.36;97926.72;4467555;32;20007;-89
2022/04/02 02:05:19;;;;;;;;;;;;;;;3.43;59.36;97933.59;4455093;32;20262;-90
2022/04/02 02:07:50;;;;;;;;;;;;;;;3.61;59.38;97934.75;4454718;32;19992;-89
2022/04/02 02:10:16;;;;;;;;;;;;;;;3.73;59.38;97938.62;4454778;32;20030;-89
2022/04/02 02:12:41;;;;;;;;;;;;;;;3.64;59.38;97944.94;4441731;32;20020;-89
2022/04/02 02:15:07;;;;;;;;;;;;;;;3.65;59.38;97946.62;4454431;32;20015;-88
2022/04/02 02:17:33;;;;;;;;;;;;;;;3.64;59.38;97950.06;4468062;32;19987;-89
2022/04/02 02:19:58;;;;;;;;;;;;;;;3.69;59.38;97953.34;4436428;32;19977;-90
2022/04/02 02:22:23;;;;;;;;;;;;;;;3.72;59.38;97948.09;4432842;32;20888;-89
2022/04/02 02:24:48;;;;;;;;;;;;;;;3.95;59.40;97960.19;4438900;32;20001;-89
2022/04/02 02:27:14;;;;;;;;;;;;;;;3.83;59.38;97952.88;4438968;32;20324;-89
2022/04/02 02:29:39;;;;;;;;;;;;;;;3.91;59.40;97958.59;4439081;32;20032;-92
2022/04/02 02:32:04;;;;;;;;;;;;;;;3.99;59.41;97946.31;4439851;32;20327;-91
2022/04/02 02:37:14;;;;;;;;;;;;;;;3.94;59.39;97948.19;4442088;32;19995;-91
2022/04/02 02:39:39;;;;;;;;;;;;;;;3.94;59.39;97938.75;4440035;32;19993;-91
2022/04/02 02:42:04;;;;;;;;;;;;;;;3.94;59.39;97938.75;4439403;32;20035;-90
2022/04/02 02:44:29;;;;;;;;;;;;;;;3.86;59.40;97940.75;4439159;32;20009;-91
2022/04/02 02:46:55;;;;;;;;;;;;;;;3.63;59.38;97932.97;4439036;32;20009;-90
2022/04/02 02:49:20;;;;;;;;;;;;;;;3.78;59.39;97934.16;4438814;32;19989;-89
2022/04/02 02:51:45;;;;;;;;;;;;;;;3.80;59.39;97940.12;4438248;32;22367;-90
2022/04/02 02:54:10;;;;;;;;;;;;;;;3.66;59.38;97951.72;4438415;32;20540;-91
2022/04/02 02:56:36;;;;;;;;;;;;;;;3.80;59.38;97956.41;4440211;32;20322;-88
2022/04/02 02:59:02;;;;;;;;;;;;;;;3.76;59.38;97964.25;4454729;32;20042;-87
2022/04/02 03:01:27;;;;;;;;;;;;;;;3.84;59.39;97962.28;4439151;32;20395;-88
2022/04/02 03:03:53;;;;;;;;;;;;;;;3.83;59.40;97960.59;4440166;32;20005;-87
2022/04/02 03:06:18;;;;;;;;;;;;;;;3.91;59.40;97959.44;4439859;32;20377;-87
2022/04/02 03:08:43;;;;;;;;;;;;;;;3.69;59.38;97958.47;4440079;32;20330;-86
2022/04/02 03:11:08;;;;;;;;;;;;;;;3.78;59.39;97965.03;4454598;32;20020;-87
2022/04/02 03:13:33;;;;;;;;;;;;;;;3.48;59.37;97964.31;4440111;32;20049;-86
2022/04/02 03:15:59;;;;;;;;;;;;;;;3.66;59.38;97968.88;4453876;32;24167;-87
2022/04/02 03:18:24;;;;;;;;;;;;;;;3.51;59.37;97972.78;4439862;32;20016;-87
2022/04/02 03:20:49;;;;;;;;;;;;;;;3.55;59.37;97965.78;4439569;32;20492;-88
2022/04/02 03:23:15;;;;;;;;;;;;;;;3.72;59.38;97970.41;4439993;32;20101;-89
2022/04/02 03:25:40;;;;;;;;;;;;;;;3.75;59.38;97966.00;4439971;32;19984;-88
2022/04/02 03:28:06;;;;;;;;;;;;;;;3.73;59.38;97974.66;4439827;32;20005;-87
2022/04/02 03:30:31;;;;;;;;;;;;;;;3.66;59.38;97980.00;4439931;32;20015;-88
2022/04/02 03:32:57;;;;;;;;;;;;;;;3.51;59.37;97983.06;4440054;32;20382;-88
2022/04/02 03:35:22;;;;;;;;;;;;;;;3.64;59.38;97975.81;4440011;32;20005;-88
2022/04/02 03:37:48;;;;;;;;;;;;;;;3.61;59.38;97983.63;4439618;32;20011;-87
2022/04/02 03:40:15;;;;;;;;;;;;;;;3.47;59.37;97984.06;4439864;32;20038;-87
2022/04/02 03:42:41;;;;;;;;;;;;;;;3.44;59.36;97986.72;4439706;32;19981;-88
2022/04/02 03:45:07;;;;;;;;;;;;;;;3.64;59.38;97978.38;4439913;32;20028;-87
2022/04/02 03:47:33;;;;;;;;;;;;;;;3.67;59.38;97988.56;4439759;32;20012;-88
2022/04/02 03:49:58;;;;;;;;;;;;;;;3.66;59.38;97990.31;4439767;32;19988;-87
2022/04/02 03:52:23;;;;;;;;;;;;;;;3.62;59.38;97987.88;4439537;32;20008;-88
2022/04/02 03:54:49;;;;;;;;;;;;;;;3.59;59.37;97985.41;4439771;32;20038;-89
2022/04/02 03:57:14;;;;;;;;;;;;;;;3.54;59.38;97982.97;4452638;32;20023;-88
2022/04/02 03:59:40;;;;;;;;;;;;;;;3.37;59.36;97982.69;4452953;32;20050;-90
2022/04/02 04:02:06;;;;;;;;;;;;;;;3.34;59.36;97975.06;4427711;32;19977;-89
2022/04/02 04:04:34;;;;;;;;;;;;;;;3.34;59.36;97965.63;4440258;32;20041;-89
2022/04/02 04:06:59;;;;;;;;;;;;;;;3.36;59.36;97970.72;4440233;32;20001;-89
2022/04/02 04:09:24;;;;;;;;;;;;;;;3.37;59.36;97969.81;4440336;32;20034;-90
2022/04/02 04:11:50;;;;;;;;;;;;;;;3.45;59.36;97964.41;4440711;32;20000;-88
2022/04/02 04:14:15;;;;;;;;;;;;;;;3.39;59.37;97976.59;4440042;32;20026;-90
2022/04/02 04:16:41;;;;;;;;;;;;;;;3.36;59.36;97974.13;4440335;32;20050;-89
2022/04/02 04:19:06;;;;;;;;;;;;;;;3.32;59.36;97980.25;4439768;32;20041;-89
2022/04/02 04:21:34;;;;;;;;;;;;;;;3.24;59.36;97974.50;4441138;32;20334;-91
2022/04/02 04:23:59;;;;;;;;;;;;;;;3.46;59.36;97989.25;4440614;32;19989;-89
2022/04/02 04:26:24;;;;;;;;;;;;;;;3.32;59.36;97984.56;4439663;32;22815;-90
2022/04/02 04:28:50;;;;;;;;;;;;;;;3.44;59.36;97983.31;4439874;32;20005;-89
2022/04/02 04:31:17;;;;;;;;;;;;;;;3.61;59.38;97983.63;4440031;32;20007;-87
2022/04/02 04:33:43;;;;;;;;;;;;;;;3.45;59.37;97985.00;4439630;32;19999;-88
2022/04/02 04:36:08;;;;;;;;;;;;;;;3.42;59.37;97991.09;4440577;32;20107;-92
2022/04/02 04:38:33;;;;;;;;;;;;;;;3.28;59.36;97988.09;4441757;32;22680;-91
2022/04/02 04:40:59;;;;;;;;;;;;;;;3.28;59.36;97994.06;4454931;32;20000;-92
2022/04/02 04:43:25;;;;;;;;;;;;;;;3.25;59.36;97994.16;4442474;32;20667;-92
2022/04/02 04:45:50;;;;;;;;;;;;;;;3.45;59.37;98000.44;4442529;32;20001;-90
2022/04/02 04:48:15;;;;;;;;;;;;;;;3.53;59.38;97994.13;4441106;32;19989;-91
2022/04/02 04:50:40;;;;;;;;;;;;;;;3.59;59.37;97993.97;4439988;32;19997;-87
2022/04/02 04:53:06;;;;;;;;;;;;;;;3.62;59.38;97990.47;4439377;32;20008;-86
2022/04/02 04:55:31;;;;;;;;;;;;;;;3.68;59.38;97996.22;4439574;32;20356;-91
2022/04/02 04:57:56;;;;;;;;;;;;;;;3.66;59.38;98000.59;4439768;32;23534;-89
2022/04/02 05:00:22;;;;;;;;;;;;;;;3.77;59.39;97995.09;4439989;32;19973;-88
2022/04/02 05:02:47;;;;;;;;;;;;;;;3.86;59.39;97996.53;4439892;32;19984;-88
2022/04/02 05:05:13;;;;;;;;;;;;;;;3.75;59.38;98001.19;4439616;32;20612;-89
2022/04/02 05:07:38;;;;;;;;;;;;;;;3.65;59.38;98000.66;4439489;32;20038;-88
2022/04/02 05:10:04;;;;;;;;;;;;;;;3.81;59.38;97998.44;4439641;32;20053;-89
2022/04/02 05:12:30;;;;;;;;;;;;;;;3.92;59.40;98002.31;4440477;32;19977;-89
2022/04/02 05:14:55;;;;;;;;;;;;;;;3.94;59.39;98003.09;4439936;32;20063;-89
2022/04/02 05:17:21;;;;;;;;;;;;;;;3.81;59.38;98001.00;4439737;32;20050;-88
2022/04/02 05:19:46;;;;;;;;;;;;;;;3.89;59.39;98006.72;4438337;32;24119;-88
2022/04/02 05:22:11;;;;;;;;;;;;;;;4.00;59.40;98008.03;4439211;32;19985;-87
2022/04/02 05:24:37;;;;;;;;;;;;;;;4.07;59.40;98016.41;4439427;32;20016;-89
2022/04/02 05:27:03;;;;;;;;;;;;;;;4.08;59.40;98024.97;4439219;32;20053;-89
2022/04/02 05:29:29;;;;;;;;;;;;;;;3.95;59.39;98027.94;4439323;32;19992;-89
2022/04/02 05:31:55;;;;;;;;;;;;;;;4.01;59.40;98022.59;4439357;32;20016;-90
2022/04/02 05:34:20;;;;;;;;;;;;;;;4.11;59.40;98033.44;4439588;32;20024;-89
2022/04/02 05:36:45;;;;;;;;;;;;;;;4.23;59.41;98021.88;4439149;32;19993;-89
2022/04/02 05:39:10;;;;;;;;;;;;;;;4.26;59.41;98032.09;4438527;32;28110;-90
2022/04/02 05:41:37;;;;;;;;;;;;;;;4.25;59.41;98038.94;4439159;32;19999;-88
2022/04/02 05:44:02;;;;;;;;;;;;;;;4.36;59.42;98035.19;4438998;32;20058;-89
2022/04/02 05:46:28;;;;;;;;;;;;;;;4.44;59.43;98020.28;4438756;32;20330;-89
2022/04/02 05:48:53;;;;;;;;;;;;;;;4.45;59.42;98022.81;4438778;32;20023;-89
2022/04/02 05:51:18;;;;;;;;;;;;;;;4.30;59.42;98018.22;4438927;32;20433;-89
2022/04/02 05:53:43;;;;;;;;;;;;;;;4.37;59.42;98023.97;4438861;32;20003;-89
2022/04/02 05:56:09;;;;;;;;;;;;;;;4.42;59.43;98035.81;4439058;32;20017;-88
2022/04/02 05:58:36;;;;;;;;;;;;;;;4.48;59.42;98034.75;4438885;32;20042;-89
2022/04/02 06:01:01;;;;;;;;;;;;;;;4.43;59.43;98040.06;4438759;32;20030;-89
2022/04/02 06:03:27;;;;;;;;;;;;;;;4.39;59.42;98035.06;4438936;32;20001;-89
2022/04/02 06:05:52;;;;;;;;;;;;;;;4.36;59.43;98033.44;4438899;32;19977;-90
2022/04/02 06:08:17;;;;;;;;;;;;;;;4.63;59.43;98027.31;4438817;32;19992;-88
2022/04/02 06:10:44;;;;;;;;;;;;;;;4.60;59.43;98024.03;4438781;32;19997;-89
2022/04/02 06:13:09;;;;;;;;;;;;;;;4.82;59.45;98036.97;4439367;32;19995;-89
2022/04/02 06:15:35;;;;;;;;;;;;;;;4.79;59.45;98032.78;4438790;32;19997;-89
2022/04/02 06:18:00;;;;;;;;;;;;;;;4.85;59.45;98037.69;4438620;32;20020;-89
2022/04/02 06:20:25;;;;;;;;;;;;;;;4.99;59.45;98039.78;4438519;32;20259;-89
2022/04/02 06:22:50;;;;;;;;;;;;;;;5.02;59.46;98046.56;4438574;32;20027;-88
2022/04/02 06:25:16;;;;;;;;;;;;;;;5.12;59.46;98045.31;4437732;32;25366;-88
2022/04/02 06:27:44;;;;;;;;;;;;;;;5.26;59.47;98044.81;4437822;32;19989;-89
2022/04/02 06:30:13;;;;;;;;;;;;;;;5.41;59.48;98049.37;4438234;32;19981;-88
2022/04/02 06:32:39;;;;;;;;;;;;;;;5.48;59.48;98045.69;4440371;32;20364;-88
2022/04/02 06:35:04;;;;;;;;;;;;;;;5.62;59.49;98047.69;4440368;32;20036;-87
2022/04/02 06:37:35;;;;;;;;;;;;;;;5.41;59.48;98049.37;4440205;32;20320;-87
2022/04/02 06:40:01;;;;;;;;;;;;;;;5.61;59.49;98049.44;4440154;32;19977;-88
2022/04/02 06:42:26;;;;;;;;;;;;;;;5.76;59.50;98051.44;4454573;32;19977;-89
2022/04/02 06:44:51;;;;;;;;;;;;;;;5.60;59.48;98050.34;4440167;32;20042;-88
2022/04/02 06:47:16;;;;;;;;;;;;;;;5.66;59.49;98055.25;4440333;32;20038;-88
2022/04/02 06:49:42;;;;;;;;;;;;;;;5.77;59.50;98049.69;4454543;32;20324;-88
2022/04/02 06:52:07;;;;;;;;;;;;;;;5.95;59.51;98061.06;4440418;32;19993;-89
2022/04/02 06:54:33;;;;;;;;;;;;;;;5.76;59.49;98055.75;4454653;32;20033;-89
2022/04/02 06:56:58;;;;;;;;;;;;;;;5.81;59.50;98057.25;4440543;32;20270;-89
2022/04/02 06:59:23;;;;;;;;;;;;;;;5.83;59.51;98055.44;4440255;32;20027;-88
2022/04/02 07:01:49;;;;;;;;;;;;;;;5.99;59.51;98060.03;4442070;32;20067;-91
2022/04/02 07:04:14;;;;;;;;;;;;;;;6.13;59.51;98052.53;4454536;32;20056;-88
2022/04/02 07:06:44;;;;;;;;;;;;;;;6.30;59.53;98057.03;4468989;32;22810;-86
2022/04/02 07:09:09;;;;;;;;;;;;;;;6.17;59.53;98066.19;4469888;32;19973;-87
2022/04/02 07:11:34;;;;;;;;;;;;;;;6.02;59.51;98062.50;4469937;32;19988;-87
2022/04/02 07:13:59;;;;;;;;;;;;;;;6.33;59.53;98049.97;4455002;32;20009;-87
2022/04/02 07:16:26;;;;;;;;;;;;;;;6.61;59.55;98059.13;4454904;32;20564;-87
2022/04/02 07:18:51;;;;;;;;;;;;;;;6.73;59.56;98064.63;4455194;32;19985;-87
2022/04/02 07:21:17;;;;;;;;;;;;;;;6.94;59.57;98065.44;4455198;32;20012;-87
2022/04/02 07:23:42;;;;;;;;;;;;;;;6.78;59.55;98067.84;4455160;32;19981;-87
2022/04/02 07:26:08;;;;;;;;;;;;;;;6.69;59.55;98076.03;4455219;32;19977;-87
2022/04/02 07:28:33;;;;;;;;;;;;;;;6.71;59.55;98079.38;4455233;32;19980;-86
2022/04/02 07:30:58;;;;;;;;;;;;;;;6.64;59.54;98072.81;4454336;32;26968;-86
2022/04/02 07:33:24;;;;;;;;;;;;;;;6.40;59.53;98076.44;4468063;32;20032;-87
2022/04/02 07:35:52;;;;;;;;;;;;;;;6.51;59.54;98078.53;4467910;32;20016;-86
2022/04/02 07:38:18;;;;;;;;;;;;;;;6.52;59.54;98078.47;4454908;32;19980;-87
2022/04/02 07:40:58;;;;;;;;;;;;;;;6.90;59.56;98073.41;4469541;32;20054;-89
2022/04/02 07:43:25;;;;;;;;;;;;;;;7.10;59.58;98070.78;4469480;32;20056;-88
2022/04/02 07:45:58;;;;;;;;;;;;;;;7.09;59.57;98079.44;4455201;32;19976;-88
2022/04/02 07:48:23;;;;;;;;;;;;;;;7.44;59.59;98082.19;4442408;32;20049;-88
2022/04/02 07:50:48;;;;;;;;;;;;;;;7.80;59.61;98074.44;4455226;32;19992;-89
2022/04/02 07:53:21;;;;;;;;;;;;;;;7.72;59.61;98072.22;4452318;32;20109;-87
2022/04/02 07:55:48;;;;;;;;;;;;;;;7.92;59.62;98079.06;4439774;32;19981;-87
2022/04/02 07:58:13;;;;;;;;;;;;;;;7.92;59.62;98085.06;4439617;32;19973;-90
2022/04/02 08:00:39;;;;;;;;;;;;;;;7.95;59.62;98089.25;4426294;32;20389;-87
2022/04/02 08:03:04;;;;;;;;;;;;;;;7.98;59.62;98091.69;4439498;32;20128;-87
2022/04/02 08:05:32;;;;;;;;;;;;;;;7.85;59.62;98090.63;4426690;32;20026;-88
2022/04/02 08:07:58;;;;;;;;;;;;;;;7.92;59.62;98079.87;4426279;32;20042;-88
2022/04/02 08:10:24;;;;;;;;;;;;;;;7.95;59.62;98084.06;4439675;32;20033;-87
2022/04/02 08:12:49;;;;;;;;;;;;;;;8.03;59.62;98087.13;4439593;32;20000;-88
2022/04/02 08:15:18;;;;;;;;;;;;;;;8.12;59.63;98088.47;4426499;32;19981;-87
2022/04/02 08:17:53;;;;;;;;;;;;;;;8.08;59.63;98089.53;4439558;32;19987;-87
2022/04/02 08:20:18;;;;;;;;;;;;;;;7.96;59.62;98085.75;4439923;32;20007;-87
2022/04/02 08:22:44;;;;;;;;;;;;;;;8.09;59.63;98092.03;4426318;32;20017;-88
2022/04/02 08:25:12;;;;;;;;;;;;;;;8.00;59.63;98095.06;4452288;32;20014;-87
2022/04/02 08:27:40;;;;;;;;;;;;;;;8.02;59.62;98083.69;4439435;32;19989;-88
2022/04/02 08:30:09;;;;;;;;;;;;;;;8.14;59.63;98094.41;4454138;32;20066;-88
2022/04/02 08:32:34;;;;;;;;;;;;;;;8.31;59.65;98097.03;4454244;32;20036;-87
2022/04/02 08:35:06;;;;;;;;;;;;;;;8.61;59.66;98098.13;4452988;32;20001;-88
2022/04/02 08:37:47;;;;;;;;;;;;;;;8.88;59.67;98089.84;4440607;32;19991;-87
2022/04/02 08:40:18;;;;;;;;;;;;;;;9.01;59.68;98103.03;4454454;32;19985;-87
2022/04/02 08:42:55;;;;;;;;;;;;;;;8.98;59.68;98100.56;4453029;32;20124;-88
2022/04/02 08:45:24;;;;;;;;;;;;;;;9.09;59.68;98104.28;4427488;32;19977;-88
2022/04/02 08:47:49;;;;;;;;;;;;;;;8.80;59.66;98105.81;4440421;32;20012;-87
2022/04/02 08:50:15;;;;;;;;;;;;;;;9.04;59.69;98106.31;4454202;32;20005;-88
2022/04/02 08:52:40;;;;;;;;;;;;;;;9.05;59.69;98109.72;4440302;32;19973;-87
2022/04/02 08:55:14;;;;;;;;;;;;;;;9.21;59.69;98110.59;4453694;32;19989;-87
2022/04/02 08:57:42;;;;;;;;;;;;;;;8.98;59.68;98123.91;4454378;32;19993;-87
2022/04/02 09:00:08;;;;;;;;;;;;;;;9.12;59.69;98119.72;4454224;32;19985;-86
2022/04/02 09:02:45;;;;;;;;;;;;;;;9.23;59.69;98122.59;4452938;32;20019;-87
2022/04/02 09:05:22;;;;;;;;;;;;;;;9.15;59.69;98121.31;4452810;32;19995;-88
2022/04/02 09:07:59;;;;;;;;;;;;;;;8.93;59.67;98122.41;4427342;32;19985;-88
2022/04/02 09:10:37;;;;;;;;;;;;;;;8.95;59.67;98124.09;4453141;32;20036;-89
2022/04/02 09:13:37;;;;;;;;;;;;;;;8.94;59.67;98123.25;4454464;32;19981;-88
2022/04/02 09:16:04;;;;;;;;;;;;;;;8.90;59.68;98135.53;4421322;32;20400;-88
2022/04/02 09:18:37;;;;;;;;;;;;;;;8.95;59.68;98140.50;4433842;32;20031;-88
2022/04/02 09:21:14;;;;;;;;;;;;;;;8.84;59.68;98141.06;4440108;32;19996;-89
2022/04/02 09:23:44;;;;;;;;;;;;;;;9.12;59.69;98150.03;4454238;32;19989;-89
2022/04/02 09:26:28;;;;;;;;;;;;;;;9.25;59.69;98134.66;4439930;32;19995;-89
2022/04/02 09:29:12;;;;;;;;;;;;;;;9.29;59.70;98138.75;4452678;32;20291;-89
2022/04/02 09:31:57;;;;;;;;;;;;;;;8.99;59.68;98152.41;4454056;32;19989;-88
2022/04/02 09:34:31;;;;;;;;;;;;;;;9.31;59.70;98148.16;4454250;32;20028;-89
2022/04/02 09:37:03;;;;;;;;;;;;;;;9.21;59.70;98157.31;4454166;32;20045;-88
2022/04/02 09:39:44;;;;;;;;;;;;;;;8.84;59.67;98160.97;4440104;32;19974;-89
2022/04/02 09:42:26;;;;;;;;;;;;;;;9.12;59.69;98163.00;4454119;32;20023;-89
2022/04/02 09:44:55;;;;;;;;;;;;;;;9.13;59.69;98169.88;4426893;32;20797;-88
2022/04/02 09:47:29;;;;;;;;;;;;;;;9.25;59.69;98164.06;4452576;32;20048;-89
2022/04/02 09:50:10;;;;;;;;;;;;;;;9.17;59.69;98161.84;4452699;32;19997;-89
2022/04/02 09:52:44;;;;;;;;;;;;;;;9.21;59.69;98167.69;4438707;32;20008;-90
2022/04/02 09:55:13;;;;;;;;;;;;;;;9.08;59.69;98177.06;4462407;32;19985;-89
2022/04/02 09:57:45;;;;;;;;;;;;;;;8.96;59.67;98173.31;4444258;32;19969;-89
2022/04/02 10:00:10;;;;;;;;;;;;;;;9.06;59.68;98186.69;4467630;32;19973;-88
2022/04/02 10:03:03;;;;;;;;;;;;;;;9.15;59.69;98181.00;4439920;32;20348;-89
2022/04/02 10:05:36;;;;;;;;;;;;;;;9.15;59.69;98184.44;4438817;32;19981;-90
2022/04/02 10:08:05;;;;;;;;;;;;;;;9.10;59.68;98189.03;4453165;32;20009;-87
2022/04/02 10:10:30;;;;;;;;;;;;;;;9.14;59.69;98179.31;4437480;32;19993;-88
2022/04/02 10:12:58;;;;;;;;;;;;;;;9.08;59.68;98177.06;4437395;32;19981;-90
2022/04/02 10:15:23;;;;;;;;;;;;;;;9.10;59.68;98181.25;4437671;32;20766;-87
2022/04/02 10:17:51;;;;;;;;;;;;;;;8.89;59.67;98182.31;4441682;32;19996;-89
2022/04/02 10:20:18;;;;;;;;;;;;;;;9.12;59.69;98187.19;4450427;32;20352;-89
2022/04/02 10:22:44;;;;;;;;;;;;;;;8.96;59.67;98182.84;4437272;32;20050;-86
2022/04/02 10:25:11;;;;;;;;;;;;;;;8.89;59.67;98187.50;4451504;32;19985;-85
2022/04/02 10:27:36;;;;;;;;;;;;;;;9.09;59.69;98187.34;4437390;32;20065;-83
2022/04/02 10:30:06;;;;;;;;;;;;;;;9.09;59.69;98196.91;4451407;32;19996;-82
2022/04/02 10:32:50;;;;;;;;;;;;;;;9.04;59.68;98183.31;4451435;32;19977;-82
2022/04/02 10:35:15;;;;;;;;;;;;;;;8.72;59.66;98182.31;4452215;32;19986;-81
2022/04/02 10:37:41;;;;;;;;;;;;;;;8.65;59.66;98189.56;4466831;32;25518;-80
2022/04/02 10:40:07;;;;;;;;;;;;;;;8.96;59.67;98177.66;4467840;32;19977;-87
2022/04/02 10:42:36;;;;;;;;;;;;;;;8.90;59.68;98178.81;4453630;32;19989;-92
2022/04/02 10:45:03;;;;;;;;;;;;;;;9.04;59.69;98184.16;4467849;32;20325;-91
2022/04/02 10:47:29;;;;;;;;;;;;;;;9.04;59.68;98180.72;4453628;32;20039;-90
2022/04/02 10:49:58;;;;;;;;;;;;;;;9.08;59.68;98187.44;4453663;32;20260;-85
2022/04/02 10:52:23;;;;;;;;;;;;;;;9.00;59.68;98194.78;4439444;32;20004;-90
2022/04/02 10:54:49;;;;;;;;;;;;;;;9.15;59.69;98192.22;4426799;32;20751;-89
2022/04/02 10:57:14;;;;;;;;;;;;;;;9.07;59.68;98198.75;4425890;32;20356;-90
2022/04/02 10:59:39;;;;;;;;;;;;;;;9.20;59.69;98200.63;4426055;32;20026;-92
2022/04/02 11:02:05;;;;;;;;;;;;;;;9.09;59.69;98204.69;4426696;32;20180;-91
2022/04/02 11:04:49;;;;;;;;;;;;;;;8.83;59.67;98214.62;4426414;32;20314;-92
2022/04/02 11:07:25;;;;;;;;;;;;;;;8.58;59.65;98206.34;4440806;32;20001;-93
2022/04/02 11:09:51;;;;;;;;;;;;;;;8.64;59.66;98218.19;4442457;32;19991;-91
2022/04/02 11:12:18;;;;;;;;;;;;;;;8.54;59.65;98220.38;4441478;32;20000;-93
2022/04/02 11:14:50;;;;;;;;;;;;;;;8.56;59.65;98232.37;4441579;32;20007;-90
2022/04/02 11:17:29;;;;;;;;;;;;;;;8.61;59.66;98222.59;4441609;32;20297;-91
2022/04/02 11:20:04;;;;;;;;;;;;;;;8.43;59.65;98220.88;4468814;32;20555;-90
2022/04/02 11:22:37;;;;;;;;;;;;;;;8.22;59.64;98227.88;4443096;32;20779;-90
2022/04/02 11:25:03;;;;;;;;;;;;;;;8.38;59.65;98222.88;4442384;32;19961;-92
2022/04/02 11:27:29;;;;;;;;;;;;;;;8.44;59.66;98217.37;4455163;32;20333;-90
2022/04/02 11:29:58;;;;;;;;;;;;;;;8.34;59.64;98223.94;4443550;32;20055;-94
2022/04/02 11:32:25;;;;;;;;;;;;;;;8.27;59.64;98231.09;4458223;32;19985;-93
2022/04/02 11:34:50;;;;;;;;;;;;;;;8.31;59.64;98226.63;4444919;32;20003;-90
2022/04/02 11:37:16;;;;;;;;;;;;;;;8.24;59.64;98230.41;4444914;32;20327;-92
2022/04/02 11:39:46;;;;;;;;;;;;;;;8.39;59.65;98221.94;4444722;32;20045;-93
2022/04/02 11:42:13;;;;;;;;;;;;;;;8.44;59.66;98230.34;4444871;32;20023;-94
2022/04/02 11:44:38;;;;;;;;;;;;;;;8.56;59.66;98237.56;4444540;32;20325;-95
2022/04/02 11:47:04;;;;;;;;;;;;;;;8.63;59.66;98224.28;4457472;32;20874;-93
2022/04/02 11:52:52;;;;;;;;;;;;;;;8.80;59.66;98221.72;4472045;32;20021;-93
2022/04/02 11:55:17;;;;;;;;;;;;;;;8.86;59.67;98231.78;4444984;32;19993;-94
2022/04/02 11:58:03;;;;;;;;;;;;;;;9.07;59.69;98237.66;4457921;32;19973;-92
2022/04/02 12:00:29;;;;;;;;;;;;;;;8.91;59.68;98233.22;4457639;32;20039;-93
2022/04/02 12:02:54;;;;;;;;;;;;;;;8.83;59.68;98230.19;4444701;32;20049;-93
2022/04/02 12:05:22;;;;;;;;;;;;;;;8.89;59.67;98229.03;4444976;32;19984;-93
2022/04/02 12:07:49;;;;;;;;;;;;;;;8.87;59.67;98234.31;4445198;32;19981;-94
2022/04/02 12:10:15;;;;;;;;;;;;;;;8.91;59.68;98229.78;4445450;32;19977;-93
2022/04/02 12:12:44;;;;;;;;;;;;;;;8.85;59.67;98228.34;4444890;32;20053;-94
2022/04/02 12:15:10;;;;;;;;;;;;;;;8.72;59.67;98234.19;4445553;32;20060;-94
2022/04/02 12:17:35;;;;;;;;;;;;;;;8.69;59.66;98227.41;4458260;32;20566;-93
2022/04/02 12:20:00;;;;;;;;;;;;;;;8.30;59.64;98236.16;4445339;32;19975;-93
2022/04/02 12:22:31;;;;;;;;;;;;;;;8.32;59.64;98236.09;4445011;32;20239;-93
2022/04/02 12:25:01;;;;;;;;;;;;;;;8.23;59.64;98234.75;4444933;32;20042;-92
2022/04/02 12:27:27;;;;;;;;;;;;;;;8.47;59.65;98225.00;4444974;32;20093;-93
2022/04/02 12:29:52;;;;;;;;;;;;;;;8.66;59.67;98230.16;4444238;32;19971;-94
2022/04/02 12:32:30;;;;;;;;;;;;;;;8.64;59.66;98229.41;4445177;32;19993;-94
2022/04/02 12:35:02;;;;;;;;;;;;;;;8.68;59.66;98236.09;4471370;32;19993;-92
2022/04/02 12:37:29;;;;;;;;;;;;;;;8.63;59.66;98237.25;4445520;32;20048;-94
2022/04/02 12:39:54;;;;;;;;;;;;;;;8.59;59.66;98246.94;4445175;32;20001;-93
2022/04/02 12:42:38;;;;;;;;;;;;;;;8.47;59.65;98247.50;4444713;32;20043;-93
2022/04/02 12:45:07;;;;;;;;;;;;;;;8.59;59.66;98249.53;4444924;32;20004;-93
2022/04/02 12:47:33;;;;;;;;;;;;;;;8.45;59.66;98252.78;4445016;32;19999;-95
2022/04/02 12:50:08;;;;;;;;;;;;;;;8.40;59.65;98254.75;4445184;32;20361;-94
2022/04/02 12:52:34;;;;;;;;;;;;;;;8.34;59.65;98246.41;4444888;32;20076;-92
2022/04/02 12:54:59;;;;;;;;;;;;;;;8.19;59.64;98251.38;4445302;32;20251;-93
2022/04/02 12:57:31;;;;;;;;;;;;;;;8.27;59.64;98251.84;4457689;32;20018;-94
2022/04/02 12:59:56;;;;;;;;;;;;;;;8.39;59.65;98252.22;4445556;32;19985;-93
2022/04/02 13:02:22;;;;;;;;;;;;;;;8.47;59.65;98239.72;4444571;32;20007;-94
2022/04/02 13:04:54;;;;;;;;;;;;;;;8.42;59.65;98244.28;4444754;32;20037;-93
2022/04/02 13:07:20;;;;;;;;;;;;;;;8.29;59.65;98249.19;4470529;32;19972;-95